Terminal Aerodrome Forecast
Issued by NWS Charleston, SC

Home | Current Version | Previous Version | Text Only | Print | Product List | Glossary On
Versions: 1 2 3 4 5 6 7 8 9 10 11 12 13 14 15 16 17 18 19 20 21 22 23 24 25 26 27 28
000
FTUS42 KCHS 052330
TAFCHS
TAF
KCHS 052330Z 0600/0624 28010G20KT 6SM -RA SCT007 BKN015 OVC035
      TEMPO 0600/0603 2SM RA BR BKN007 OVC012
     FM060300 01015G23KT 5SM -RADZ BR BKN005 OVC011
     FM061400 02012G18KT P6SM SCT010 BKN025=

USA.gov is the U.S. government's official web portal to all federal, state and local government web resources and services.